sensor_id;sensor_type;location;lat;lon;timestamp;P1;durP1;ratioP1;P2;durP2;ratioP2
39958;SDS011;25639;53.634;9.880;2022-08-19T00:00:11;36.78;;;22.35;;
39958;SDS011;25639;53.634;9.880;2022-08-19T00:02:39;31.67;;;22.05;;
39958;SDS011;25639;53.634;9.880;2022-08-19T00:05:06;28.65;;;19.60;;
39958;SDS011;25639;53.634;9.880;2022-08-19T00:07:33;35.95;;;22.90;;
39958;SDS011;25639;53.634;9.880;2022-08-19T00:09:58;36.25;;;22.65;;
39958;SDS011;25639;53.634;9.880;2022-08-19T00:12:24;35.58;;;22.50;;
39958;SDS011;25639;53.634;9.880;2022-08-19T00:14:49;34.60;;;23.00;;
39958;SDS011;25639;53.634;9.880;2022-08-19T00:17:14;34.38;;;21.80;;
39958;SDS011;25639;53.634;9.880;2022-08-19T00:19:40;38.53;;;23.08;;
39958;SDS011;25639;53.634;9.880;2022-08-19T00:22:05;36.55;;;22.55;;
39958;SDS011;25639;53.634;9.880;2022-08-19T00:24:31;40.47;;;22.85;;
39958;SDS011;25639;53.634;9.880;2022-08-19T00:26:57;38.20;;;23.08;;
39958;SDS011;25639;53.634;9.880;2022-08-19T00:29:23;38.88;;;22.90;;
39958;SDS011;25639;53.634;9.880;2022-08-19T00:31:50;37.22;;;22.33;;
39958;SDS011;25639;53.634;9.880;2022-08-19T00:34:19;33.95;;;22.40;;
39958;SDS011;25639;53.634;9.880;2022-08-19T00:36:45;35.10;;;21.90;;
39958;SDS011;25639;53.634;9.880;2022-08-19T00:39:10;34.72;;;21.45;;
39958;SDS011;25639;53.634;9.880;2022-08-19T00:41:37;34.58;;;20.58;;
39958;SDS011;25639;53.634;9.880;2022-08-19T00:44:08;29.45;;;19.83;;
39958;SDS011;25639;53.634;9.880;2022-08-19T00:46:38;31.00;;;18.85;;
39958;SDS011;25639;53.634;9.880;2022-08-19T00:49:14;31.00;;;17.75;;
39958;SDS011;25639;53.634;9.880;2022-08-19T00:51:45;29.63;;;18.20;;
39958;SDS011;25639;53.634;9.880;2022-08-19T00:54:12;29.48;;;18.02;;
39958;SDS011;25639;53.634;9.880;2022-08-19T00:56:38;28.27;;;16.58;;
39958;SDS011;25639;53.634;9.880;2022-08-19T00:59:05;37.10;;;18.00;;
39958;SDS011;25639;53.634;9.880;2022-08-19T01:01:34;27.13;;;17.52;;
39958;SDS011;25639;53.634;9.880;2022-08-19T01:04:02;24.73;;;17.75;;
39958;SDS011;25639;53.634;9.880;2022-08-19T01:06:28;34.22;;;19.25;;
39958;SDS011;25639;53.634;9.880;2022-08-19T01:08:57;33.53;;;19.15;;
39958;SDS011;25639;53.634;9.880;2022-08-19T01:11:23;27.50;;;17.65;;
39958;SDS011;25639;53.634;9.880;2022-08-19T01:13:49;31.30;;;18.48;;
39958;SDS011;25639;53.634;9.880;2022-08-19T01:16:17;34.95;;;17.80;;
39958;SDS011;25639;53.634;9.880;2022-08-19T01:18:45;35.03;;;18.67;;
39958;SDS011;25639;53.634;9.880;2022-08-19T01:21:13;36.05;;;20.33;;
39958;SDS011;25639;53.634;9.880;2022-08-19T01:23:52;35.20;;;20.08;;
39958;SDS011;25639;53.634;9.880;2022-08-19T01:26:19;37.00;;;20.02;;
39958;SDS011;25639;53.634;9.880;2022-08-19T01:28:48;39.80;;;22.17;;
39958;SDS011;25639;53.634;9.880;2022-08-19T01:31:17;48.10;;;23.73;;
39958;SDS011;25639;53.634;9.880;2022-08-19T01:33:46;42.53;;;22.85;;
39958;SDS011;25639;53.634;9.880;2022-08-19T01:36:15;40.40;;;21.70;;
39958;SDS011;25639;53.634;9.880;2022-08-19T01:38:50;37.53;;;20.85;;
39958;SDS011;25639;53.634;9.880;2022-08-19T01:41:17;44.92;;;21.83;;
39958;SDS011;25639;53.634;9.880;2022-08-19T01:43:43;40.15;;;21.70;;
39958;SDS011;25639;53.634;9.880;2022-08-19T01:46:09;41.17;;;22.35;;
39958;SDS011;25639;53.634;9.880;2022-08-19T01:48:37;36.63;;;21.15;;
39958;SDS011;25639;53.634;9.880;2022-08-19T01:51:05;37.65;;;20.13;;
39958;SDS011;25639;53.634;9.880;2022-08-19T01:53:32;41.22;;;22.08;;
39958;SDS011;25639;53.634;9.880;2022-08-19T01:56:00;43.22;;;22.73;;
39958;SDS011;25639;53.634;9.880;2022-08-19T01:58:27;50.70;;;24.25;;
39958;SDS011;25639;53.634;9.880;2022-08-19T02:00:57;50.25;;;23.20;;
39958;SDS011;25639;53.634;9.880;2022-08-19T02:03:22;42.90;;;22.00;;
39958;SDS011;25639;53.634;9.880;2022-08-19T02:05:53;49.33;;;24.00;;
39958;SDS011;25639;53.634;9.880;2022-08-19T02:08:24;49.35;;;23.13;;
39958;SDS011;25639;53.634;9.880;2022-08-19T02:10:50;49.95;;;23.98;;
39958;SDS011;25639;53.634;9.880;2022-08-19T02:13:16;49.72;;;24.02;;
39958;SDS011;25639;53.634;9.880;2022-08-19T02:15:41;56.22;;;24.67;;
39958;SDS011;25639;53.634;9.880;2022-08-19T02:18:07;53.28;;;24.25;;
39958;SDS011;25639;53.634;9.880;2022-08-19T02:20:33;52.85;;;23.90;;
39958;SDS011;25639;53.634;9.880;2022-08-19T02:22:59;61.65;;;26.85;;
39958;SDS011;25639;53.634;9.880;2022-08-19T02:25:25;50.92;;;23.98;;
39958;SDS011;25639;53.634;9.880;2022-08-19T02:27:50;68.30;;;26.65;;
39958;SDS011;25639;53.634;9.880;2022-08-19T02:30:16;54.92;;;25.23;;
39958;SDS011;25639;53.634;9.880;2022-08-19T02:32:42;67.63;;;27.65;;
39958;SDS011;25639;53.634;9.880;2022-08-19T02:35:07;62.33;;;27.08;;
39958;SDS011;25639;53.634;9.880;2022-08-19T02:37:33;64.07;;;26.63;;
39958;SDS011;25639;53.634;9.880;2022-08-19T02:40:17;61.92;;;26.88;;
39958;SDS011;25639;53.634;9.880;2022-08-19T02:42:43;62.92;;;24.85;;
39958;SDS011;25639;53.634;9.880;2022-08-19T02:45:10;60.40;;;26.67;;
39958;SDS011;25639;53.634;9.880;2022-08-19T02:47:36;63.97;;;27.92;;
39958;SDS011;25639;53.634;9.880;2022-08-19T02:50:02;60.70;;;25.95;;
39958;SDS011;25639;53.634;9.880;2022-08-19T02:52:29;59.10;;;25.67;;
39958;SDS011;25639;53.634;9.880;2022-08-19T02:54:54;65.88;;;25.52;;
39958;SDS011;25639;53.634;9.880;2022-08-19T02:57:22;58.58;;;25.27;;
39958;SDS011;25639;53.634;9.880;2022-08-19T02:59:48;54.97;;;23.10;;
39958;SDS011;25639;53.634;9.880;2022-08-19T03:02:14;55.33;;;25.10;;
39958;SDS011;25639;53.634;9.880;2022-08-19T03:04:40;57.25;;;25.20;;
39958;SDS011;25639;53.634;9.880;2022-08-19T03:07:06;61.33;;;24.02;;
39958;SDS011;25639;53.634;9.880;2022-08-19T03:09:31;57.17;;;24.50;;
39958;SDS011;25639;53.634;9.880;2022-08-19T03:11:56;56.35;;;23.30;;
39958;SDS011;25639;53.634;9.880;2022-08-19T03:14:22;52.03;;;21.92;;
39958;SDS011;25639;53.634;9.880;2022-08-19T03:16:49;50.58;;;22.65;;
39958;SDS011;25639;53.634;9.880;2022-08-19T03:19:17;48.10;;;22.33;;
39958;SDS011;25639;53.634;9.880;2022-08-19T03:21:46;47.15;;;21.02;;
39958;SDS011;25639;53.634;9.880;2022-08-19T03:24:12;51.80;;;22.88;;
39958;SDS011;25639;53.634;9.880;2022-08-19T03:26:39;45.67;;;21.02;;
39958;SDS011;25639;53.634;9.880;2022-08-19T03:29:06;51.70;;;22.25;;
39958;SDS011;25639;53.634;9.880;2022-08-19T03:31:34;46.78;;;20.92;;
39958;SDS011;25639;53.634;9.880;2022-08-19T03:34:00;50.05;;;21.98;;
39958;SDS011;25639;53.634;9.880;2022-08-19T03:36:25;46.40;;;21.27;;
39958;SDS011;25639;53.634;9.880;2022-08-19T03:38:53;47.50;;;21.92;;
39958;SDS011;25639;53.634;9.880;2022-08-19T03:41:22;54.42;;;22.08;;
39958;SDS011;25639;53.634;9.880;2022-08-19T03:43:53;42.00;;;19.42;;
39958;SDS011;25639;53.634;9.880;2022-08-19T03:46:20;40.03;;;20.70;;
39958;SDS011;25639;53.634;9.880;2022-08-19T03:48:51;51.53;;;20.92;;
39958;SDS011;25639;53.634;9.880;2022-08-19T03:54:15;46.75;;;21.67;;
39958;SDS011;25639;53.634;9.880;2022-08-19T03:56:43;50.53;;;23.20;;
39958;SDS011;25639;53.634;9.880;2022-08-19T03:59:15;53.67;;;23.88;;
39958;SDS011;25639;53.634;9.880;2022-08-19T04:01:44;56.10;;;24.52;;
39958;SDS011;25639;53.634;9.880;2022-08-19T04:04:10;60.85;;;25.83;;
39958;SDS011;25639;53.634;9.880;2022-08-19T04:06:37;64.15;;;27.17;;
39958;SDS011;25639;53.634;9.880;2022-08-19T04:09:04;64.82;;;29.17;;
39958;SDS011;25639;53.634;9.880;2022-08-19T04:11:34;67.68;;;29.60;;
39958;SDS011;25639;53.634;9.880;2022-08-19T04:14:05;63.20;;;28.30;;
39958;SDS011;25639;53.634;9.880;2022-08-19T04:16:30;68.95;;;30.25;;
39958;SDS011;25639;53.634;9.880;2022-08-19T04:18:56;63.40;;;29.92;;
39958;SDS011;25639;53.634;9.880;2022-08-19T04:21:25;68.75;;;29.38;;
39958;SDS011;25639;53.634;9.880;2022-08-19T04:23:51;60.58;;;28.52;;
39958;SDS011;25639;53.634;9.880;2022-08-19T04:26:18;62.55;;;27.70;;
39958;SDS011;25639;53.634;9.880;2022-08-19T04:28:45;59.58;;;28.13;;
39958;SDS011;25639;53.634;9.880;2022-08-19T04:31:18;53.38;;;27.42;;
39958;SDS011;25639;53.634;9.880;2022-08-19T04:33:58;55.15;;;26.98;;
39958;SDS011;25639;53.634;9.880;2022-08-19T04:36:27;57.17;;;26.67;;
39958;SDS011;25639;53.634;9.880;2022-08-19T04:38:55;49.63;;;26.02;;
39958;SDS011;25639;53.634;9.880;2022-08-19T04:41:22;55.63;;;26.55;;
39958;SDS011;25639;53.634;9.880;2022-08-19T04:44:07;43.47;;;21.63;;
39958;SDS011;25639;53.634;9.880;2022-08-19T04:46:32;45.90;;;24.58;;
39958;SDS011;25639;53.634;9.880;2022-08-19T04:48:59;43.45;;;23.70;;
39958;SDS011;25639;53.634;9.880;2022-08-19T04:51:25;48.83;;;24.27;;
39958;SDS011;25639;53.634;9.880;2022-08-19T04:53:51;57.53;;;25.50;;
39958;SDS011;25639;53.634;9.880;2022-08-19T04:56:17;45.17;;;23.65;;
39958;SDS011;25639;53.634;9.880;2022-08-19T04:58:46;41.35;;;22.88;;
39958;SDS011;25639;53.634;9.880;2022-08-19T05:01:20;43.25;;;23.88;;
39958;SDS011;25639;53.634;9.880;2022-08-19T05:03:47;48.60;;;24.13;;
39958;SDS011;25639;53.634;9.880;2022-08-19T05:06:14;46.38;;;25.25;;
39958;SDS011;25639;53.634;9.880;2022-08-19T05:08:41;43.67;;;25.15;;
39958;SDS011;25639;53.634;9.880;2022-08-19T05:11:21;50.63;;;25.35;;
39958;SDS011;25639;53.634;9.880;2022-08-19T05:13:49;46.22;;;26.30;;
39958;SDS011;25639;53.634;9.880;2022-08-19T05:16:15;42.40;;;25.67;;
39958;SDS011;25639;53.634;9.880;2022-08-19T05:18:43;50.35;;;25.50;;
39958;SDS011;25639;53.634;9.880;2022-08-19T05:21:27;41.85;;;23.50;;
39958;SDS011;25639;53.634;9.880;2022-08-19T05:24:12;46.45;;;23.85;;
39958;SDS011;25639;53.634;9.880;2022-08-19T05:26:40;37.83;;;22.30;;
39958;SDS011;25639;53.634;9.880;2022-08-19T05:29:10;41.75;;;22.52;;
39958;SDS011;25639;53.634;9.880;2022-08-19T05:31:35;38.60;;;20.88;;
39958;SDS011;25639;53.634;9.880;2022-08-19T05:34:01;33.50;;;19.90;;
39958;SDS011;25639;53.634;9.880;2022-08-19T05:36:29;34.40;;;20.40;;
39958;SDS011;25639;53.634;9.880;2022-08-19T05:38:59;33.60;;;21.65;;
39958;SDS011;25639;53.634;9.880;2022-08-19T05:41:25;38.58;;;20.30;;
39958;SDS011;25639;53.634;9.880;2022-08-19T05:43:55;33.40;;;19.40;;
39958;SDS011;25639;53.634;9.880;2022-08-19T05:46:22;37.00;;;21.60;;
39958;SDS011;25639;53.634;9.880;2022-08-19T05:48:48;33.80;;;19.23;;
39958;SDS011;25639;53.634;9.880;2022-08-19T05:51:13;34.78;;;17.92;;
39958;SDS011;25639;53.634;9.880;2022-08-19T05:53:41;32.15;;;20.25;;
39958;SDS011;25639;53.634;9.880;2022-08-19T05:56:08;41.03;;;20.42;;
39958;SDS011;25639;53.634;9.880;2022-08-19T05:58:35;36.67;;;20.60;;
39958;SDS011;25639;53.634;9.880;2022-08-19T06:01:03;38.50;;;20.60;;
39958;SDS011;25639;53.634;9.880;2022-08-19T06:03:33;40.50;;;21.40;;
39958;SDS011;25639;53.634;9.880;2022-08-19T06:05:59;37.08;;;20.25;;
39958;SDS011;25639;53.634;9.880;2022-08-19T06:08:25;38.08;;;20.60;;
39958;SDS011;25639;53.634;9.880;2022-08-19T06:10:52;42.40;;;22.00;;
39958;SDS011;25639;53.634;9.880;2022-08-19T06:13:18;38.47;;;21.67;;
39958;SDS011;25639;53.634;9.880;2022-08-19T06:15:44;39.22;;;21.88;;
39958;SDS011;25639;53.634;9.880;2022-08-19T06:18:11;38.33;;;20.15;;
39958;SDS011;25639;53.634;9.880;2022-08-19T06:20:37;36.88;;;21.73;;
39958;SDS011;25639;53.634;9.880;2022-08-19T06:23:02;34.00;;;18.92;;
39958;SDS011;25639;53.634;9.880;2022-08-19T06:25:28;36.88;;;20.27;;
39958;SDS011;25639;53.634;9.880;2022-08-19T06:27:54;31.92;;;19.80;;
39958;SDS011;25639;53.634;9.880;2022-08-19T06:30:19;30.55;;;19.85;;
39958;SDS011;25639;53.634;9.880;2022-08-19T06:32:44;38.53;;;19.95;;
39958;SDS011;25639;53.634;9.880;2022-08-19T06:35:09;36.97;;;21.73;;
39958;SDS011;25639;53.634;9.880;2022-08-19T06:37:36;40.33;;;20.92;;
39958;SDS011;25639;53.634;9.880;2022-08-19T06:40:02;35.63;;;20.33;;
39958;SDS011;25639;53.634;9.880;2022-08-19T06:42:28;41.78;;;22.65;;
39958;SDS011;25639;53.634;9.880;2022-08-19T06:44:53;35.22;;;21.75;;
39958;SDS011;25639;53.634;9.880;2022-08-19T06:47:19;34.72;;;21.33;;
39958;SDS011;25639;53.634;9.880;2022-08-19T06:49:45;33.30;;;20.85;;
39958;SDS011;25639;53.634;9.880;2022-08-19T06:52:12;29.05;;;19.15;;
39958;SDS011;25639;53.634;9.880;2022-08-19T06:54:38;31.25;;;18.50;;
39958;SDS011;25639;53.634;9.880;2022-08-19T06:57:04;28.83;;;20.13;;
39958;SDS011;25639;53.634;9.880;2022-08-19T06:59:31;29.35;;;17.70;;
39958;SDS011;25639;53.634;9.880;2022-08-19T07:01:58;32.13;;;15.25;;
39958;SDS011;25639;53.634;9.880;2022-08-19T07:04:26;29.30;;;16.52;;
39958;SDS011;25639;53.634;9.880;2022-08-19T07:06:59;25.48;;;15.35;;
39958;SDS011;25639;53.634;9.880;2022-08-19T07:09:26;17.70;;;11.90;;
39958;SDS011;25639;53.634;9.880;2022-08-19T07:11:52;21.05;;;12.18;;
39958;SDS011;25639;53.634;9.880;2022-08-19T07:14:20;21.45;;;13.02;;
39958;SDS011;25639;53.634;9.880;2022-08-19T07:16:48;20.95;;;12.65;;
39958;SDS011;25639;53.634;9.880;2022-08-19T07:19:15;22.05;;;13.75;;
39958;SDS011;25639;53.634;9.880;2022-08-19T07:21:42;19.17;;;12.55;;
39958;SDS011;25639;53.634;9.880;2022-08-19T07:24:07;22.40;;;13.13;;
39958;SDS011;25639;53.634;9.880;2022-08-19T07:26:37;21.95;;;12.30;;
39958;SDS011;25639;53.634;9.880;2022-08-19T07:29:04;19.60;;;11.52;;
39958;SDS011;25639;53.634;9.880;2022-08-19T07:31:29;20.67;;;13.57;;
39958;SDS011;25639;53.634;9.880;2022-08-19T07:33:55;21.20;;;13.68;;
39958;SDS011;25639;53.634;9.880;2022-08-19T07:36:24;20.30;;;13.55;;
39958;SDS011;25639;53.634;9.880;2022-08-19T07:38:57;21.88;;;13.05;;
39958;SDS011;25639;53.634;9.880;2022-08-19T07:41:24;26.25;;;13.73;;
39958;SDS011;25639;53.634;9.880;2022-08-19T07:43:51;18.85;;;12.48;;
39958;SDS011;25639;53.634;9.880;2022-08-19T07:46:17;18.88;;;12.13;;
39958;SDS011;25639;53.634;9.880;2022-08-19T07:48:45;17.98;;;12.20;;
39958;SDS011;25639;53.634;9.880;2022-08-19T07:51:12;20.52;;;12.80;;
39958;SDS011;25639;53.634;9.880;2022-08-19T07:53:38;23.95;;;14.65;;
39958;SDS011;25639;53.634;9.880;2022-08-19T07:56:03;21.88;;;13.20;;
39958;SDS011;25639;53.634;9.880;2022-08-19T07:58:31;26.08;;;14.32;;
39958;SDS011;25639;53.634;9.880;2022-08-19T08:00:58;20.60;;;13.38;;
39958;SDS011;25639;53.634;9.880;2022-08-19T08:03:24;18.08;;;13.10;;
39958;SDS011;25639;53.634;9.880;2022-08-19T08:06:11;25.27;;;14.15;;
39958;SDS011;25639;53.634;9.880;2022-08-19T08:08:57;24.98;;;15.43;;
39958;SDS011;25639;53.634;9.880;2022-08-19T08:11:42;23.00;;;14.40;;
39958;SDS011;25639;53.634;9.880;2022-08-19T08:14:13;17.20;;;11.80;;
39958;SDS011;25639;53.634;9.880;2022-08-19T08:16:40;16.98;;;9.73;;
39958;SDS011;25639;53.634;9.880;2022-08-19T08:19:07;17.70;;;9.60;;
39958;SDS011;25639;53.634;9.880;2022-08-19T08:21:32;15.70;;;10.85;;
39958;SDS011;25639;53.634;9.880;2022-08-19T08:23:58;18.73;;;10.82;;
39958;SDS011;25639;53.634;9.880;2022-08-19T08:26:24;15.20;;;9.85;;
39958;SDS011;25639;53.634;9.880;2022-08-19T08:28:50;22.60;;;11.52;;
39958;SDS011;25639;53.634;9.880;2022-08-19T08:31:16;18.80;;;12.52;;
39958;SDS011;25639;53.634;9.880;2022-08-19T08:33:43;20.60;;;12.25;;
39958;SDS011;25639;53.634;9.880;2022-08-19T08:36:09;23.33;;;12.25;;
39958;SDS011;25639;53.634;9.880;2022-08-19T08:38:36;20.08;;;11.90;;
39958;SDS011;25639;53.634;9.880;2022-08-19T08:41:04;18.88;;;13.05;;
39958;SDS011;25639;53.634;9.880;2022-08-19T08:43:39;16.85;;;10.05;;
39958;SDS011;25639;53.634;9.880;2022-08-19T08:46:12;17.77;;;10.63;;
39958;SDS011;25639;53.634;9.880;2022-08-19T08:51:28;16.48;;;9.10;;
39958;SDS011;25639;53.634;9.880;2022-08-19T08:53:59;14.07;;;8.90;;
39958;SDS011;25639;53.634;9.880;2022-08-19T08:56:26;19.52;;;11.27;;
39958;SDS011;25639;53.634;9.880;2022-08-19T09:01:24;15.98;;;10.30;;
39958;SDS011;25639;53.634;9.880;2022-08-19T09:03:50;20.48;;;12.40;;
39958;SDS011;25639;53.634;9.880;2022-08-19T09:12:10;20.58;;;12.10;;
39958;SDS011;25639;53.634;9.880;2022-08-19T09:14:50;20.23;;;10.90;;
39958;SDS011;25639;53.634;9.880;2022-08-19T09:17:21;20.98;;;11.63;;
39958;SDS011;25639;53.634;9.880;2022-08-19T09:20:15;17.60;;;11.00;;
39958;SDS011;25639;53.634;9.880;2022-08-19T09:22:44;21.67;;;12.70;;
39958;SDS011;25639;53.634;9.880;2022-08-19T09:25:11;21.13;;;12.32;;
39958;SDS011;25639;53.634;9.880;2022-08-19T09:27:41;24.85;;;12.95;;
39958;SDS011;25639;53.634;9.880;2022-08-19T09:30:08;20.88;;;13.30;;
39958;SDS011;25639;53.634;9.880;2022-08-19T09:32:39;18.75;;;13.63;;
39958;SDS011;25639;53.634;9.880;2022-08-19T09:35:06;20.98;;;14.65;;
39958;SDS011;25639;53.634;9.880;2022-08-19T09:37:32;24.40;;;13.80;;
39958;SDS011;25639;53.634;9.880;2022-08-19T09:39:58;24.08;;;13.82;;
39958;SDS011;25639;53.634;9.880;2022-08-19T09:42:23;20.35;;;13.23;;
39958;SDS011;25639;53.634;9.880;2022-08-19T09:44:48;22.20;;;12.93;;
39958;SDS011;25639;53.634;9.880;2022-08-19T09:47:14;19.67;;;13.95;;
39958;SDS011;25639;53.634;9.880;2022-08-19T09:49:40;26.83;;;15.82;;
39958;SDS011;25639;53.634;9.880;2022-08-19T09:52:07;21.38;;;14.02;;
39958;SDS011;25639;53.634;9.880;2022-08-19T09:54:34;30.13;;;17.35;;
39958;SDS011;25639;53.634;9.880;2022-08-19T09:56:59;26.23;;;15.75;;
39958;SDS011;25639;53.634;9.880;2022-08-19T09:59:26;30.90;;;17.52;;
39958;SDS011;25639;53.634;9.880;2022-08-19T10:01:52;29.55;;;16.75;;
39958;SDS011;25639;53.634;9.880;2022-08-19T10:04:18;24.25;;;16.38;;
39958;SDS011;25639;53.634;9.880;2022-08-19T10:06:44;25.27;;;16.17;;
39958;SDS011;25639;53.634;9.880;2022-08-19T10:09:12;26.38;;;16.42;;
39958;SDS011;25639;53.634;9.880;2022-08-19T10:11:40;23.08;;;15.05;;
39958;SDS011;25639;53.634;9.880;2022-08-19T10:14:06;27.13;;;16.73;;
39958;SDS011;25639;53.634;9.880;2022-08-19T10:16:32;25.30;;;16.88;;
39958;SDS011;25639;53.634;9.880;2022-08-19T10:18:58;30.20;;;16.83;;
39958;SDS011;25639;53.634;9.880;2022-08-19T10:21:25;28.70;;;16.77;;
39958;SDS011;25639;53.634;9.880;2022-08-19T10:23:55;28.10;;;17.00;;
39958;SDS011;25639;53.634;9.880;2022-08-19T10:26:23;26.42;;;16.48;;
39958;SDS011;25639;53.634;9.880;2022-08-19T10:28:51;28.65;;;17.67;;
39958;SDS011;25639;53.634;9.880;2022-08-19T10:31:18;31.10;;;18.15;;
39958;SDS011;25639;53.634;9.880;2022-08-19T10:33:46;34.13;;;18.25;;
39958;SDS011;25639;53.634;9.880;2022-08-19T10:36:16;29.33;;;19.17;;
39958;SDS011;25639;53.634;9.880;2022-08-19T10:38:44;31.73;;;18.65;;
39958;SDS011;25639;53.634;9.880;2022-08-19T10:41:13;33.63;;;19.20;;
39958;SDS011;25639;53.634;9.880;2022-08-19T10:43:41;31.40;;;17.65;;
39958;SDS011;25639;53.634;9.880;2022-08-19T10:46:08;32.10;;;18.25;;
39958;SDS011;25639;53.634;9.880;2022-08-19T10:48:35;27.38;;;16.85;;
39958;SDS011;25639;53.634;9.880;2022-08-19T10:51:00;28.35;;;17.23;;
39958;SDS011;25639;53.634;9.880;2022-08-19T10:53:45;27.40;;;16.08;;
39958;SDS011;25639;53.634;9.880;2022-08-19T10:56:10;31.73;;;16.27;;
39958;SDS011;25639;53.634;9.880;2022-08-19T10:58:55;29.83;;;15.85;;
39958;SDS011;25639;53.634;9.880;2022-08-19T11:01:22;26.52;;;14.13;;
39958;SDS011;25639;53.634;9.880;2022-08-19T11:03:47;22.55;;;14.32;;
39958;SDS011;25639;53.634;9.880;2022-08-19T11:06:12;24.02;;;13.35;;
39958;SDS011;25639;53.634;9.880;2022-08-19T11:08:38;19.00;;;14.18;;
39958;SDS011;25639;53.634;9.880;2022-08-19T11:11:03;22.08;;;13.63;;
39958;SDS011;25639;53.634;9.880;2022-08-19T11:13:32;21.55;;;13.30;;
39958;SDS011;25639;53.634;9.880;2022-08-19T11:16:02;20.67;;;12.85;;
39958;SDS011;25639;53.634;9.880;2022-08-19T11:18:38;20.98;;;12.95;;
39958;SDS011;25639;53.634;9.880;2022-08-19T11:21:29;22.15;;;12.95;;
39958;SDS011;25639;53.634;9.880;2022-08-19T11:23:54;21.67;;;14.20;;
39958;SDS011;25639;53.634;9.880;2022-08-19T11:26:21;24.35;;;13.13;;
39958;SDS011;25639;53.634;9.880;2022-08-19T11:28:47;22.92;;;13.95;;
39958;SDS011;25639;53.634;9.880;2022-08-19T11:31:14;21.13;;;12.77;;
39958;SDS011;25639;53.634;9.880;2022-08-19T11:33:41;20.60;;;12.85;;
39958;SDS011;25639;53.634;9.880;2022-08-19T11:36:07;18.25;;;11.73;;
39958;SDS011;25639;53.634;9.880;2022-08-19T11:38:33;16.52;;;11.25;;
39958;SDS011;25639;53.634;9.880;2022-08-19T11:41:01;23.48;;;13.30;;
39958;SDS011;25639;53.634;9.880;2022-08-19T11:43:29;16.88;;;11.18;;
39958;SDS011;25639;53.634;9.880;2022-08-19T11:45:56;18.17;;;11.95;;
39958;SDS011;25639;53.634;9.880;2022-08-19T11:48:22;17.27;;;12.15;;
39958;SDS011;25639;53.634;9.880;2022-08-19T11:50:49;19.77;;;12.02;;
39958;SDS011;25639;53.634;9.880;2022-08-19T11:53:16;19.92;;;11.65;;
39958;SDS011;25639;53.634;9.880;2022-08-19T11:55:45;17.38;;;12.68;;
39958;SDS011;25639;53.634;9.880;2022-08-19T11:58:11;16.45;;;12.48;;
39958;SDS011;25639;53.634;9.880;2022-08-19T12:00:38;17.48;;;11.90;;
39958;SDS011;25639;53.634;9.880;2022-08-19T12:03:04;12.93;;;10.07;;
39958;SDS011;25639;53.634;9.880;2022-08-19T12:05:30;17.63;;;10.98;;
39958;SDS011;25639;53.634;9.880;2022-08-19T12:07:55;17.55;;;11.52;;
39958;SDS011;25639;53.634;9.880;2022-08-19T12:10:21;16.85;;;11.02;;
39958;SDS011;25639;53.634;9.880;2022-08-19T12:12:47;16.08;;;10.90;;
39958;SDS011;25639;53.634;9.880;2022-08-19T12:15:12;15.05;;;10.73;;
39958;SDS011;25639;53.634;9.880;2022-08-19T12:17:39;18.70;;;12.20;;
39958;SDS011;25639;53.634;9.880;2022-08-19T12:20:07;18.83;;;12.00;;
39958;SDS011;25639;53.634;9.880;2022-08-19T12:22:34;15.27;;;10.45;;
39958;SDS011;25639;53.634;9.880;2022-08-19T12:25:00;14.35;;;11.43;;
39958;SDS011;25639;53.634;9.880;2022-08-19T12:27:26;17.65;;;11.00;;
39958;SDS011;25639;53.634;9.880;2022-08-19T12:29:51;13.23;;;10.50;;
39958;SDS011;25639;53.634;9.880;2022-08-19T12:32:17;17.85;;;11.85;;
39958;SDS011;25639;53.634;9.880;2022-08-19T12:34:42;14.40;;;9.60;;
39958;SDS011;25639;53.634;9.880;2022-08-19T12:37:08;16.63;;;11.32;;
39958;SDS011;25639;53.634;9.880;2022-08-19T12:39:40;12.80;;;10.02;;
39958;SDS011;25639;53.634;9.880;2022-08-19T12:42:07;17.48;;;11.43;;
39958;SDS011;25639;53.634;9.880;2022-08-19T12:44:34;16.33;;;11.82;;
39958;SDS011;25639;53.634;9.880;2022-08-19T12:47:01;14.13;;;10.40;;
39958;SDS011;25639;53.634;9.880;2022-08-19T12:49:28;12.82;;;10.93;;
39958;SDS011;25639;53.634;9.880;2022-08-19T12:51:54;12.50;;;10.00;;
39958;SDS011;25639;53.634;9.880;2022-08-19T12:54:20;13.70;;;11.05;;
39958;SDS011;25639;53.634;9.880;2022-08-19T12:56:45;20.60;;;11.88;;
39958;SDS011;25639;53.634;9.880;2022-08-19T12:59:11;15.38;;;11.07;;
39958;SDS011;25639;53.634;9.880;2022-08-19T13:01:36;13.60;;;11.07;;
39958;SDS011;25639;53.634;9.880;2022-08-19T13:04:03;23.10;;;11.95;;
39958;SDS011;25639;53.634;9.880;2022-08-19T13:06:28;12.93;;;10.15;;
39958;SDS011;25639;53.634;9.880;2022-08-19T13:08:54;15.55;;;10.82;;
39958;SDS011;25639;53.634;9.880;2022-08-19T13:11:20;14.52;;;10.13;;
39958;SDS011;25639;53.634;9.880;2022-08-19T13:13:49;12.23;;;9.82;;
39958;SDS011;25639;53.634;9.880;2022-08-19T13:16:16;13.68;;;11.13;;
39958;SDS011;25639;53.634;9.880;2022-08-19T13:18:44;13.23;;;9.95;;
39958;SDS011;25639;53.634;9.880;2022-08-19T13:21:12;13.18;;;10.63;;
39958;SDS011;25639;53.634;9.880;2022-08-19T13:23:38;13.68;;;10.77;;
39958;SDS011;25639;53.634;9.880;2022-08-19T13:26:04;14.70;;;10.38;;
39958;SDS011;25639;53.634;9.880;2022-08-19T13:28:31;10.90;;;9.75;;
39958;SDS011;25639;53.634;9.880;2022-08-19T13:31:18;14.40;;;11.20;;
39958;SDS011;25639;53.634;9.880;2022-08-19T13:34:03;12.85;;;8.98;;
39958;SDS011;25639;53.634;9.880;2022-08-19T13:36:28;12.85;;;10.32;;
39958;SDS011;25639;53.634;9.880;2022-08-19T13:38:54;13.13;;;10.05;;
39958;SDS011;25639;53.634;9.880;2022-08-19T13:41:19;13.80;;;11.15;;
39958;SDS011;25639;53.634;9.880;2022-08-19T13:43:44;15.38;;;11.38;;
39958;SDS011;25639;53.634;9.880;2022-08-19T13:46:11;14.60;;;11.18;;
39958;SDS011;25639;53.634;9.880;2022-08-19T13:48:39;14.52;;;11.48;;
39958;SDS011;25639;53.634;9.880;2022-08-19T13:51:06;16.88;;;12.77;;
39958;SDS011;25639;53.634;9.880;2022-08-19T13:53:35;17.17;;;12.60;;
39958;SDS011;25639;53.634;9.880;2022-08-19T13:56:04;19.02;;;14.07;;
39958;SDS011;25639;53.634;9.880;2022-08-19T13:58:31;19.20;;;13.57;;
39958;SDS011;25639;53.634;9.880;2022-08-19T14:00:56;23.50;;;14.50;;
39958;SDS011;25639;53.634;9.880;2022-08-19T14:03:24;16.05;;;13.20;;
39958;SDS011;25639;53.634;9.880;2022-08-19T14:05:49;19.83;;;13.88;;
39958;SDS011;25639;53.634;9.880;2022-08-19T14:08:14;16.77;;;13.45;;
39958;SDS011;25639;53.634;9.880;2022-08-19T14:10:40;19.88;;;13.15;;
39958;SDS011;25639;53.634;9.880;2022-08-19T14:13:07;23.88;;;14.40;;
39958;SDS011;25639;53.634;9.880;2022-08-19T14:15:33;18.27;;;13.20;;
39958;SDS011;25639;53.634;9.880;2022-08-19T14:17:58;19.05;;;13.63;;
39958;SDS011;25639;53.634;9.880;2022-08-19T14:20:24;17.35;;;12.82;;
39958;SDS011;25639;53.634;9.880;2022-08-19T14:22:50;15.48;;;12.45;;
39958;SDS011;25639;53.634;9.880;2022-08-19T14:25:17;17.20;;;11.75;;
39958;SDS011;25639;53.634;9.880;2022-08-19T14:27:45;16.35;;;12.10;;
39958;SDS011;25639;53.634;9.880;2022-08-19T14:30:12;17.90;;;12.38;;
39958;SDS011;25639;53.634;9.880;2022-08-19T14:32:40;14.55;;;11.40;;
39958;SDS011;25639;53.634;9.880;2022-08-19T14:35:08;19.35;;;13.15;;
39958;SDS011;25639;53.634;9.880;2022-08-19T14:37:34;15.73;;;12.20;;